»·PEaware :: N589DC KLGB-KBUR

N589DC :: KLGB-KBUR

FLIGHT INFORMATION

Flight Status: Arrived
Operator: Privately registered:
United States
More flights under this callsign
Pilot: Giorgi G. (17211)
Aircraft: CESSNA 172 SKYHAWK
(C172)
More flights by this aircraft type
Origin: KLGB Long Beach
United States
Destination: KBUR Bob Hope-Burbank
United States
More flights between these airports :: More routes between these airports
Route: SLI V23 POPPR SMO125 SMO SMO311 SILEX
File this flight plan on PilotEdge
Remarks:
Altitude:
(Current/Filed)
4,000ft
Speed:
(Current/Filed)
110kts
Departed: 03-Feb-19 02:39 PM
Arrived: 03-Feb-19 03:09 PM
Distance/Time
Traveled:
25nm/0:30
Distance/Time
To Go:
Arrived

Flight Plot

Page will automatically refresh every two minutes.


Map Options




Map Legend


Flown Route
Filed Route
Departure Airport
Arrival Airport
Navaid (VOR, NDB)
Fix

Horizontal Profiles

Position Reports

Time Latitude Longitude Heading Altitude Ground
Speed
03-Feb-19 14:19 33.812639 -118.160085 269 64ft 0kts
03-Feb-19 14:20 33.812639 -118.160085 269 64ft 0kts
03-Feb-19 14:21 33.812639 -118.160085 269 64ft 0kts
03-Feb-19 14:22 33.812639 -118.160085 269 64ft 0kts
03-Feb-19 14:23 33.812639 -118.160085 269 64ft 0kts
03-Feb-19 14:24 33.812639 -118.160085 269 64ft 0kts
03-Feb-19 14:25 33.812639 -118.160085 269 64ft 0kts
03-Feb-19 14:26 33.812639 -118.160085 269 64ft 0kts
03-Feb-19 14:27 33.812639 -118.160085 269 64ft 0kts
03-Feb-19 14:28 33.812639 -118.160085 269 64ft 0kts
03-Feb-19 14:29 33.813097 -118.159877 94 64ft 7kts
03-Feb-19 14:30 33.813087 -118.157495 90 64ft 15kts
03-Feb-19 14:31 33.813092 -118.152281 90 64ft 14kts
03-Feb-19 14:32 33.813096 -118.148578 89 64ft 1kts
03-Feb-19 14:33 33.813244 -118.147807 8 64ft 0kts
03-Feb-19 14:34 33.813244 -118.147807 8 64ft 0kts
03-Feb-19 14:35 33.813244 -118.147807 8 64ft 0kts
03-Feb-19 14:36 33.813244 -118.147807 8 64ft 0kts
03-Feb-19 14:37 33.813244 -118.147807 8 64ft 0kts
03-Feb-19 14:38 33.813844 -118.153868 269 79ft 73kts
03-Feb-19 14:39 33.815418 -118.181003 277 759ft 87kts
03-Feb-19 14:40 33.821134 -118.208587 282 1480ft 85kts
03-Feb-19 14:41 33.827207 -118.240967 282 1637ft 107kts
03-Feb-19 14:42 33.835392 -118.276515 288 1569ft 112kts
03-Feb-19 14:43 33.854966 -118.305422 319 1570ft 116kts
03-Feb-19 14:44 33.880426 -118.329454 319 1570ft 116kts
03-Feb-19 14:45 33.903188 -118.350784 318 1960ft 83kts
03-Feb-19 14:46 33.922474 -118.368770 317 2565ft 89kts
03-Feb-19 14:47 33.942047 -118.387228 314 3163ft 89kts
03-Feb-19 14:48 33.961514 -118.405233 314 3758ft 87kts
03-Feb-19 14:49 33.980385 -118.422783 312 4353ft 84kts
03-Feb-19 14:50 33.999372 -118.440917 313 4255ft 94kts
03-Feb-19 14:51 34.019917 -118.461500 313 3969ft 108kts
03-Feb-19 14:52 34.044422 -118.487870 312 3962ft 115kts
03-Feb-19 14:53 34.067026 -118.512324 311 3962ft 106kts
03-Feb-19 14:54 34.088233 -118.536276 310 3981ft 100kts
03-Feb-19 14:55 34.108345 -118.559063 310 3995ft 98kts
03-Feb-19 14:56 34.128327 -118.581694 309 3991ft 98kts
03-Feb-19 14:57 34.148316 -118.604187 309 3988ft 98kts
03-Feb-19 14:58 34.168356 -118.626620 309 3986ft 98kts
03-Feb-19 14:59 34.193377 -118.630629 53 3560ft 121kts
03-Feb-19 15:00 34.205186 -118.594255 93 2964ft 98kts
03-Feb-19 15:02 34.203476 -118.559473 97 3050ft 126kts
03-Feb-19 15:03 34.201904 -118.522457 94 3044ft 87kts
03-Feb-19 15:04 34.199308 -118.494517 107 2803ft 96kts
03-Feb-19 15:05 34.198858 -118.460300 88 2315ft 106kts
03-Feb-19 15:06 34.199154 -118.423998 97 1719ft 93kts
03-Feb-19 15:07 34.198631 -118.397715 96 1168ft 63kts
03-Feb-19 15:08 34.198074 -118.375850 96 995ft 74kts
03-Feb-19 15:09 34.197608 -118.360407 151 781ft 17kts
03-Feb-19 15:10 34.197236 -118.360277 180 781ft 0kts
03-Feb-19 15:11 34.196837 -118.360677 266 781ft 10kts
03-Feb-19 15:12 34.196104 -118.362776 191 781ft 7kts
03-Feb-19 15:13 34.195646 -118.363004 174 781ft 0kts

Navigation Log

Ident Type
Flight plan parsing failed, navigation log unavailable